createdAt,value
2022-10-20T00:08:40.074Z,11.61
2022-10-20T00:28:40.093Z,11.74
2022-10-20T00:48:40.073Z,11.75
2022-10-20T01:08:40.025Z,11.71
2022-10-20T01:28:39.998Z,11.59
2022-10-20T01:48:39.967Z,11.48
2022-10-20T02:08:39.938Z,11.41
2022-10-20T02:28:39.974Z,11.37
2022-10-20T02:48:39.912Z,11.29
2022-10-20T03:08:39.884Z,11.09
2022-10-20T03:28:39.865Z,10.97
2022-10-20T03:48:39.857Z,10.88
2022-10-20T04:08:39.809Z,10.81
2022-10-20T04:28:39.794Z,10.59
2022-10-20T04:48:39.786Z,10.48
2022-10-20T05:08:39.752Z,10.50
2022-10-20T05:28:39.878Z,10.46
2022-10-20T05:48:39.836Z,10.33
2022-10-20T06:08:39.699Z,10.28
2022-10-20T06:28:39.824Z,10.34
2022-10-20T06:48:39.826Z,10.31
2022-10-20T07:08:39.634Z,10.45
2022-10-20T07:28:39.764Z,10.52
2022-10-20T07:48:39.753Z,10.64
2022-10-20T08:08:39.732Z,10.85
2022-10-20T08:28:39.707Z,10.95
2022-10-20T08:48:39.559Z,11.17
2022-10-20T09:08:39.511Z,11.68
2022-10-20T09:28:39.501Z,12.10
2022-10-20T09:48:39.502Z,12.55
2022-10-20T10:08:39.465Z,12.99
2022-10-20T10:28:39.427Z,13.39
2022-10-20T10:48:39.385Z,13.53
2022-10-20T11:08:39.408Z,13.95
2022-10-20T11:28:39.429Z,14.30
2022-10-20T11:48:39.343Z,14.44
2022-10-20T12:08:39.298Z,14.60
2022-10-20T12:28:39.272Z,14.69
2022-10-20T12:48:39.258Z,15.20
2022-10-20T13:08:39.226Z,15.31
2022-10-20T13:28:39.199Z,15.31
2022-10-20T13:48:39.164Z,15.15
2022-10-20T14:08:39.137Z,15.13
2022-10-20T14:28:39.130Z,15.07
2022-10-20T14:48:39.094Z,15.00
2022-10-20T15:08:39.066Z,14.93
2022-10-20T15:28:39.028Z,14.77
2022-10-20T15:48:39.022Z,14.69
2022-10-20T16:08:38.997Z,14.47
2022-10-20T16:28:38.977Z,14.36
2022-10-20T16:48:38.956Z,14.20
2022-10-20T17:08:38.913Z,14.00
2022-10-20T17:28:38.884Z,13.89
2022-10-20T17:48:38.874Z,13.84
2022-10-20T18:08:38.834Z,13.65
2022-10-20T18:28:38.815Z,13.25
2022-10-20T18:48:38.820Z,13.16
2022-10-20T19:08:38.761Z,13.14
2022-10-20T19:28:38.734Z,13.02
2022-10-20T19:48:38.732Z,12.94
2022-10-20T20:08:38.689Z,12.91
2022-10-20T20:28:38.683Z,12.84
2022-10-20T20:48:38.646Z,12.69
2022-10-20T21:08:38.615Z,12.64
2022-10-20T21:28:38.597Z,12.48
2022-10-20T21:48:38.583Z,12.40
2022-10-20T22:08:38.559Z,12.45
2022-10-20T22:28:38.534Z,12.48
2022-10-20T22:48:38.514Z,12.51
2022-10-20T23:08:38.472Z,12.32
2022-10-20T23:28:38.457Z,12.32
2022-10-20T23:48:38.489Z,12.29
